Time;durP1;ratioP1;P1;durP2;ratioP2;P2;SDS_P1;SDS_P2;PMS_P1;PMS_P2;Temp;Humidity;BMP_temperature;BMP_pressure;BME280_temperature;BME280_humidity;BME280_pressure;Samples;Min_cycle;Max_cycle;Signal;HPM_P1;HPM_P2
2023/10/12 00:02:28;;;;;;;10.23;2.95;;;;;;;18.11;94.01;100060.03;5228461;28;20029;-72
2023/10/12 00:07:33;;;;;;;9.15;2.80;;;;;;;18.14;93.30;100073.88;5226067;28;20016;-72
2023/10/12 00:12:46;;;;;;;8.98;2.92;;;;;;;18.42;92.08;100054.16;5231480;28;20040;-72
2023/10/12 00:17:56;;;;;;;8.73;3.00;;;;;;;18.59;91.00;100036.06;5229057;28;20017;-72
2023/10/12 00:23:10;;;;;;;7.15;2.63;;;;;;;18.82;89.58;100043.91;5229360;28;20507;-72
2023/10/12 00:25:54;;;;;;;10.45;2.80;;;;;;;18.82;89.50;100032.47;5227823;28;20516;-73
2023/10/12 00:28:37;;;;;;;8.85;2.72;;;;;;;18.89;89.76;100026.56;5211884;28;20040;-71
2023/10/12 00:31:16;;;;;;;11.70;3.30;;;;;;;18.83;90.30;100027.06;5213149;28;20055;-72
2023/10/12 00:33:48;;;;;;;13.48;2.53;;;;;;;19.03;88.45;100010.44;5231638;28;20098;-72
2023/10/12 00:36:24;;;;;;;10.80;2.88;;;;;;;19.07;87.89;100014.53;5212521;28;20036;-72
2023/10/12 00:38:56;;;;;;;9.27;2.60;;;;;;;19.04;87.90;100009.47;5229039;28;20032;-72
2023/10/12 00:41:29;;;;;;;9.50;3.33;;;;;;;19.05;88.05;100016.47;5230044;28;20474;-72
2023/10/12 00:44:10;;;;;;;10.57;2.90;;;;;;;18.95;88.88;100012.84;5208680;28;20018;-72
2023/10/12 00:47:28;;;;;;;11.77;3.20;;;;;;;18.98;88.05;100011.75;5227685;28;20413;-72
2023/10/12 00:49:41;;;;;;;12.13;3.20;;;;;;;18.96;89.09;100013.69;5244782;23;20382;-73
2023/10/12 00:52:22;;;;;;;12.10;3.13;;;;;;;19.04;87.71;100006.81;5206001;28;20039;-77
2023/10/12 00:54:58;;;;;;;10.07;2.97;;;;;;;19.08;87.90;100010.91;5218544;28;20021;-77
2023/10/12 00:57:31;;;;;;;11.90;3.08;;;;;;;18.92;88.71;100013.06;5217548;28;20108;-77
2023/10/12 01:00:15;;;;;;;11.00;3.03;;;;;;;18.82;89.41;100012.13;5200871;28;20557;-77
2023/10/12 01:03:07;;;;;;;10.35;3.10;;;;;;;18.90;89.30;100019.47;5203864;28;20029;-78
2023/10/12 01:05:36;;;;;;;12.10;2.83;;;;;;;18.85;89.78;100011.88;5202765;28;20383;-77
2023/10/12 01:08:06;;;;;;;7.65;2.83;;;;;;;18.77;90.74;100014.28;5204751;28;20033;-77
2023/10/12 01:10:40;;;;;;;12.23;3.33;;;;;;;18.75;90.61;100025.97;5186761;28;20744;-77
2023/10/12 01:13:11;;;;;;;9.30;2.97;;;;;;;18.72;91.45;100030.66;5202257;28;20082;-78
2023/10/12 01:15:43;;;;;;;10.75;3.10;;;;;;;18.62;91.93;100027.88;5207392;28;20513;-77
2023/10/12 01:18:15;;;;;;;7.88;2.72;;;;;;;18.63;91.90;100026.06;5186646;28;20408;-77
2023/10/12 01:20:49;;;;;;;10.30;3.17;;;;;;;18.53;92.55;100041.78;5203662;28;20520;-72
2023/10/12 01:23:19;;;;;;;8.10;3.20;;;;;;;18.45;93.79;100032.75;5204797;28;20172;-75
2023/10/12 01:25:49;;;;;;;11.00;3.05;;;;;;;18.44;94.27;100031.94;5204279;28;20092;-76
2023/10/12 01:28:20;;;;;;;6.75;3.00;;;;;;;18.38;94.14;100032.38;5204241;28;20120;-74
2023/10/12 01:30:50;;;;;;;7.95;3.47;;;;;;;18.31;95.20;100019.75;5204362;28;20017;-74
2023/10/12 01:33:21;;;;;;;10.07;2.90;;;;;;;18.42;94.71;100022.41;5202145;28;20025;-71
2023/10/12 01:35:51;;;;;;;12.18;3.05;;;;;;;18.47;93.55;100021.09;5201873;28;20544;-75
2023/10/12 01:38:22;;;;;;;11.52;3.20;;;;;;;18.68;92.67;100026.56;5201970;28;20104;-72
2023/10/12 01:40:55;;;;;;;10.75;3.22;;;;;;;18.65;93.58;100024.97;5205223;28;20047;-75
2023/10/12 01:43:28;;;;;;;10.13;3.70;;;;;;;18.71;94.61;100023.66;5202768;28;20025;-72
2023/10/12 01:46:03;;;;;;;9.15;3.35;;;;;;;18.59;96.12;100016.66;5202901;28;20198;-73
2023/10/12 01:48:34;;;;;;;9.07;3.15;;;;;;;18.49;97.72;100034.22;5204133;28;20031;-75
2023/10/12 01:51:10;;;;;;;10.15;3.40;;;;;;;18.55;97.29;100024.00;5206885;28;20032;-74
2023/10/12 01:53:41;;;;;;;10.73;3.15;;;;;;;18.43;98.98;100027.59;5205469;28;20041;-75
2023/10/12 01:56:11;;;;;;;11.50;3.65;;;;;;;18.38;99.56;100035.03;5204236;28;20494;-74
2023/10/12 01:58:44;;;;;;;8.05;3.22;;;;;;;18.40;99.22;100025.19;5201257;28;20044;-74
2023/10/12 02:01:18;;;;;;;11.40;3.28;;;;;;;18.30;100.00;100032.13;5207468;28;20033;-74
2023/10/12 02:03:54;;;;;;;11.20;3.40;;;;;;;18.37;99.97;100027.22;5189924;28;20024;-73
2023/10/12 02:06:28;;;;;;;12.20;3.38;;;;;;;18.32;100.00;100026.72;5211549;28;20035;-72
2023/10/12 02:09:10;;;;;;;10.13;3.55;;;;;;;18.24;100.00;100018.47;5209209;28;20047;-75
2023/10/12 02:11:53;;;;;;;10.57;3.85;;;;;;;18.34;98.59;100024.81;5187706;28;21767;-75
2023/10/12 02:14:32;;;;;;;11.18;4.00;;;;;;;18.35;99.22;100031.78;5204780;28;20036;-75
2023/10/12 02:17:04;;;;;;;11.30;3.42;;;;;;;18.37;99.78;100024.56;5206481;28;20096;-77
2023/10/12 02:19:41;;;;;;;6.65;3.08;;;;;;;18.26;100.00;100027.13;5205335;28;20654;-78
2023/10/12 02:22:24;;;;;;;11.90;3.22;;;;;;;18.22;100.00;100041.56;5205653;28;20032;-76
2023/10/12 02:25:17;;;;;;;10.23;3.45;;;;;;;18.33;100.00;100050.41;5168903;28;20037;-77
2023/10/12 02:27:58;;;;;;;11.20;3.42;;;;;;;18.30;100.00;100052.44;5204812;28;20482;-77
2023/10/12 02:30:29;;;;;;;10.13;3.50;;;;;;;18.33;99.53;100066.28;5201827;28;20037;-77
2023/10/12 02:33:07;;;;;;;11.05;3.72;;;;;;;18.33;100.00;100060.16;5206374;28;20036;-74
2023/10/12 02:35:43;;;;;;;11.10;4.00;;;;;;;18.40;100.00;100067.53;5203396;28;20495;-77
2023/10/12 02:38:14;;;;;;;9.73;3.88;;;;;;;18.34;100.00;100085.66;5201219;28;20033;-78
2023/10/12 02:40:45;;;;;;;12.73;4.22;;;;;;;18.20;100.00;100091.94;5206438;28;20541;-77
2023/10/12 02:43:15;;;;;;;9.40;4.05;;;;;;;18.01;100.00;100093.41;5206681;28;20124;-76
2023/10/12 02:45:49;;;;;;;11.13;4.30;;;;;;;17.85;100.00;100092.84;5204973;28;20018;-76
2023/10/12 02:48:26;;;;;;;8.88;3.88;;;;;;;17.72;100.00;100097.34;5191116;28;20020;-77
2023/10/12 02:51:01;;;;;;;12.25;4.07;;;;;;;17.63;100.00;100090.09;5182200;28;20029;-77
2023/10/12 02:53:31;;;;;;;7.07;3.40;;;;;;;17.61;100.00;100099.91;5205997;28;20033;-77
2023/10/12 02:56:02;;;;;;;8.95;3.72;;;;;;;17.34;100.00;100092.13;5211106;28;20044;-77
2023/10/12 02:58:32;;;;;;;10.75;3.88;;;;;;;17.34;100.00;100096.59;5212055;28;20021;-78
2023/10/12 03:01:18;;;;;;;13.15;4.55;;;;;;;17.39;100.00;100099.75;5213789;28;20033;-76
2023/10/12 03:03:49;;;;;;;;;;;;;;;17.33;100.00;100100.97;5195041;28;20048;-74
2023/10/12 03:06:23;;;;;;;12.20;4.00;;;;;;;17.23;100.00;100102.59;5211329;28;20400;-76
2023/10/12 03:11:34;;;;;;;8.07;3.90;;;;;;;17.14;100.00;100113.78;5203274;28;20041;-77
2023/10/12 03:14:13;;;;;;;12.52;4.10;;;;;;;17.13;100.00;100127.13;5207515;28;20021;-77
2023/10/12 03:16:46;;;;;;;11.85;4.53;;;;;;;17.06;100.00;100136.41;5208486;28;20217;-76
2023/10/12 03:19:28;;;;;;;9.85;4.60;;;;;;;16.93;100.00;100132.91;5208318;28;20052;-76
2023/10/12 03:22:04;;;;;;;11.07;4.10;;;;;;;16.91;100.00;100133.03;5192892;28;20058;-75
2023/10/12 03:24:43;;;;;;;12.15;4.68;;;;;;;17.01;100.00;100130.59;5207291;28;20391;-76
2023/10/12 03:27:14;;;;;;;14.93;4.75;;;;;;;17.00;100.00;100136.84;5206548;28;20439;-77
2023/10/12 03:29:45;;;;;;;10.48;4.47;;;;;;;17.00;100.00;100134.19;5208683;28;20116;-76
2023/10/12 03:32:19;;;;;;;8.55;3.95;;;;;;;16.90;100.00;100146.31;5204751;28;20048;-77
2023/10/12 03:34:53;;;;;;;10.68;4.28;;;;;;;16.88;100.00;100142.94;5189862;28;20104;-77
2023/10/12 03:43:09;;;;;;;10.93;4.15;;;;;;;16.70;100.00;100143.34;5202354;28;20126;-74
2023/10/12 03:46:00;;;;;;;11.07;4.25;;;;;;;16.59;100.00;100157.25;5192653;28;20277;-76
2023/10/12 03:54:04;;;;;;;9.32;4.30;;;;;;;16.38;100.00;100169.22;5207334;28;20037;-76
2023/10/12 03:56:39;;;;;;;12.18;4.95;;;;;;;16.29;100.00;100179.50;5203476;28;20558;-75
2023/10/12 03:59:09;;;;;;;10.52;4.50;;;;;;;16.31;100.00;100191.66;5206073;28;20029;-76
2023/10/12 04:01:41;;;;;;;12.52;5.30;;;;;;;16.28;100.00;100207.69;5189295;28;20122;-76
2023/10/12 04:09:42;;;;;;;12.50;5.63;;;;;;;16.15;100.00;100216.44;5204622;28;20120;-77
2023/10/12 04:14:58;;;;;;;13.75;5.57;;;;;;;16.04;100.00;100217.13;5205794;28;20037;-74
2023/10/12 04:31:12;;;;;;;10.80;4.35;;;;;;;15.64;100.00;100246.06;5205340;28;20036;-76
2023/10/12 04:33:55;;;;;;;11.85;4.70;;;;;;;15.57;100.00;100248.22;5208103;28;20040;-77
2023/10/12 04:36:33;;;;;;;13.50;4.30;;;;;;;15.55;100.00;100247.47;5204190;28;20024;-74
2023/10/12 04:41:54;;;;;;;11.00;4.30;;;;;;;15.57;100.00;100248.22;5207983;28;20024;-76
2023/10/12 04:46:59;;;;;;;13.65;4.05;;;;;;;15.50;100.00;100239.03;5210242;28;20037;-76
2023/10/12 04:54:59;;;;;;;10.02;3.90;;;;;;;15.57;100.00;100221.88;5207656;28;20056;-77
2023/10/12 04:57:32;;;;;;;10.95;3.80;;;;;;;15.49;100.00;100218.03;5202700;28;20467;-76
2023/10/12 05:07:54;;;;;;;11.27;3.65;;;;;;;15.47;100.00;100218.13;5206899;28;20159;-76
2023/10/12 05:10:31;;;;;;;13.88;3.90;;;;;;;15.43;100.00;100221.03;5203930;28;20556;-73
2023/10/12 05:13:06;;;;;;;11.82;3.72;;;;;;;15.43;100.00;100214.00;5206661;28;20044;-74
2023/10/12 05:18:27;;;;;;;9.77;3.95;;;;;;;15.33;100.00;100212.03;5205311;28;20386;-76
2023/10/12 05:20:59;;;;;;;8.77;4.40;;;;;;;15.42;100.00;100200.91;5184108;28;20025;-75
2023/10/12 05:23:29;;;;;;;15.00;4.70;;;;;;;15.43;100.00;100197.34;5204241;28;20079;-77
2023/10/12 05:28:37;;;;;;;8.13;4.60;;;;;;;15.39;100.00;100212.47;5204473;28;20029;-77
2023/10/12 05:33:38;;;;;;;10.13;4.55;;;;;;;15.29;100.00;100211.34;5206175;28;20071;-76
2023/10/12 05:36:11;;;;;;;9.57;4.65;;;;;;;15.33;100.00;100206.75;5201681;28;20041;-76
2023/10/12 05:38:48;;;;;;;10.02;4.40;;;;;;;15.33;100.00;100201.50;5207128;28;20033;-76
2023/10/12 05:41:38;;;;;;;14.70;4.80;;;;;;;15.37;100.00;100206.47;5202506;28;20528;-76
2023/10/12 05:44:08;;;;;;;13.40;4.80;;;;;;;15.37;100.00;100210.91;5205562;28;20474;-76
2023/10/12 05:46:40;;;;;;;10.05;4.93;;;;;;;15.38;100.00;100216.03;5208185;28;20047;-77
2023/10/12 05:49:13;;;;;;;10.30;4.15;;;;;;;15.38;100.00;100208.16;5205979;28;20498;-76
2023/10/12 05:51:44;;;;;;;14.60;4.75;;;;;;;15.36;100.00;100202.13;5203813;28;20056;-76
2023/10/12 05:54:20;;;;;;;9.77;4.43;;;;;;;15.37;100.00;100203.81;5200766;28;20102;-76
2023/10/12 05:56:51;;;;;;;10.38;4.32;;;;;;;15.46;100.00;100198.00;5207051;28;20088;-76
2023/10/12 05:59:22;;;;;;;8.73;4.03;;;;;;;15.46;100.00;100197.16;5201357;28;20034;-76
2023/10/12 06:01:53;;;;;;;11.40;5.30;;;;;;;15.53;100.00;100193.22;5199930;28;20045;-76
2023/10/12 06:04:23;;;;;;;10.00;4.95;;;;;;;15.50;100.00;100180.25;5203363;28;20390;-76
2023/10/12 06:06:53;;;;;;;9.65;4.95;;;;;;;15.46;100.00;100195.38;5206359;28;20040;-76
2023/10/12 06:09:24;;;;;;;10.60;5.55;;;;;;;15.52;100.00;100205.53;5204450;28;20025;-74
2023/10/12 06:11:55;;;;;;;14.43;6.13;;;;;;;15.51;100.00;100206.47;5199496;28;20040;-77
2023/10/12 06:14:25;;;;;;;13.88;6.53;;;;;;;15.60;100.00;100210.31;5202885;28;21748;-73
2023/10/12 06:16:55;;;;;;;12.98;6.43;;;;;;;15.73;100.00;100221.81;5201566;28;20029;-75
2023/10/12 06:19:31;;;;;;;12.30;6.25;;;;;;;15.72;100.00;100249.94;5201409;28;20466;-75
2023/10/12 06:22:23;;;;;;;12.68;6.05;;;;;;;15.85;100.00;100256.13;5204059;28;20029;-74
2023/10/12 06:24:53;;;;;;;15.38;6.20;;;;;;;15.83;100.00;100276.47;5206496;28;20033;-76
2023/10/12 06:27:24;;;;;;;12.88;6.38;;;;;;;15.86;100.00;100286.81;5205139;28;20044;-73
2023/10/12 06:29:55;;;;;;;15.85;6.43;;;;;;;15.89;100.00;100294.53;5187292;28;20025;-76
2023/10/12 06:32:31;;;;;;;12.65;6.55;;;;;;;15.93;100.00;100303.97;5205633;28;20661;-75
2023/10/12 06:45:55;;;;;;;12.40;6.10;;;;;;;15.91;100.00;100299.72;5203475;28;20120;-76
2023/10/12 06:51:03;;;;;;;11.30;6.30;;;;;;;15.83;100.00;100313.38;5219126;22;20045;-72
2023/10/12 06:53:35;;;;;;;15.32;6.00;;;;;;;15.94;100.00;100310.94;5167664;28;20034;-71
2023/10/12 06:59:14;;;;;;;15.27;6.45;;;;;;;15.89;100.00;100323.53;5185251;28;20026;-72
2023/10/12 07:04:27;;;;;;;13.23;6.18;;;;;;;15.95;100.00;100328.44;5196808;28;20021;-72
2023/10/12 07:07:00;;;;;;;16.30;6.88;;;;;;;15.81;100.00;100331.06;5192453;28;20033;-71
2023/10/12 07:12:11;;;;;;;13.57;6.65;;;;;;;16.01;100.00;100343.88;5195573;28;20037;-72
2023/10/12 07:14:55;;;;;;;14.77;6.55;;;;;;;15.99;100.00;100339.63;5194655;28;20029;-72
2023/10/12 07:17:32;;;;;;;11.63;6.38;;;;;;;15.96;100.00;100350.38;5196933;28;20309;-71
2023/10/12 07:20:03;;;;;;;14.98;6.43;;;;;;;15.91;100.00;100348.00;5180421;28;20065;-72
2023/10/12 07:22:36;;;;;;;14.52;6.80;;;;;;;15.92;100.00;100352.38;5195623;28;20030;-72
2023/10/12 07:25:07;;;;;;;12.93;6.32;;;;;;;16.07;100.00;100356.66;5178939;28;20036;-72
2023/10/12 07:27:48;;;;;;;14.50;5.82;;;;;;;16.18;100.00;100372.69;5196230;28;21040;-72
2023/10/12 07:30:30;;;;;;;11.68;5.93;;;;;;;16.16;100.00;100373.72;5195474;28;20026;-72
2023/10/12 07:33:04;;;;;;;9.45;5.35;;;;;;;16.07;100.00;100382.22;5191831;28;20030;-72
2023/10/12 07:35:38;;;;;;;8.45;4.20;;;;;;;16.05;100.00;100384.09;5190201;28;20391;-72
2023/10/12 07:38:14;;;;;;;5.75;2.72;;;;;;;15.83;100.00;100388.94;5195679;28;20033;-72
2023/10/12 07:40:56;;;;;;;4.97;2.40;;;;;;;15.70;100.00;100395.91;5177086;28;20044;-72
2023/10/12 07:43:31;;;;;;;7.32;1.63;;;;;;;15.59;100.00;100404.44;5174979;28;20021;-71
2023/10/12 07:46:45;;;;;;;5.50;1.30;;;;;;;15.39;100.00;100403.91;5194668;28;20087;-72
2023/10/12 07:49:10;;;;;;;3.10;1.23;;;;;;;15.34;100.00;100409.41;5186417;28;20264;-72
2023/10/12 07:51:59;;;;;;;5.07;1.37;;;;;;;15.32;100.00;100413.09;5174283;28;20602;-72
2023/10/12 07:54:54;;;;;;;3.97;1.65;;;;;;;15.04;100.00;100416.38;5179284;28;20391;-72
2023/10/12 07:57:31;;;;;;;7.90;1.10;;;;;;;14.96;100.00;100431.78;5178901;28;20096;-72
2023/10/12 08:21:24;;;;;;;3.50;0.80;;;;;;;14.55;100.00;100452.50;5195907;28;20499;-72
2023/10/12 08:24:09;;;;;;;3.78;0.80;;;;;;;14.62;100.00;100459.16;5197537;28;20017;-72
2023/10/12 08:29:22;;;;;;;4.97;1.00;;;;;;;14.60;100.00;100466.28;5194398;28;20501;-72
2023/10/12 08:39:53;;;;;;;5.80;1.00;;;;;;;14.37;100.00;100474.53;5194221;28;20037;-72
2023/10/12 08:45:17;;;;;;;8.60;1.90;;;;;;;14.46;100.00;100488.03;5191800;28;20041;-72
2023/10/12 08:47:53;;;;;;;8.25;1.50;;;;;;;14.49;100.00;100481.78;5195271;28;20048;-72
2023/10/12 08:53:18;;;;;;;4.80;0.93;;;;;;;14.40;100.00;100500.69;5192962;28;20115;-72
2023/10/12 08:55:51;;;;;;;7.45;1.45;;;;;;;14.41;100.00;100505.84;5193968;28;20025;-72
2023/10/12 08:58:39;;;;;;;9.48;1.05;;;;;;;14.37;100.00;100503.44;5194689;28;20025;-71
2023/10/12 09:01:10;;;;;;;6.13;1.20;;;;;;;14.38;100.00;100502.53;5193296;28;20032;-72
2023/10/12 09:03:46;;;;;;;5.55;1.20;;;;;;;14.40;100.00;100503.31;5177335;28;20025;-72
2023/10/12 09:09:05;;;;;;;7.03;1.45;;;;;;;14.49;100.00;100505.44;5192975;28;20061;-72
2023/10/12 09:11:38;;;;;;;9.90;1.95;;;;;;;14.48;100.00;100509.88;5193650;28;20060;-72
2023/10/12 09:14:15;;;;;;;11.73;1.63;;;;;;;14.52;100.00;100510.53;5194344;28;20598;-72
2023/10/12 09:16:53;;;;;;;9.57;1.70;;;;;;;14.56;100.00;100517.38;5192717;28;20037;-72
2023/10/12 09:19:33;;;;;;;4.97;0.98;;;;;;;14.58;100.00;100520.75;5193669;28;20025;-71
2023/10/12 09:22:04;;;;;;;10.93;1.77;;;;;;;14.67;100.00;100520.25;5193013;28;20029;-72
2023/10/12 09:24:37;;;;;;;7.57;1.42;;;;;;;14.64;100.00;100528.31;5193869;28;20071;-72
2023/10/12 09:27:14;;;;;;;6.43;1.48;;;;;;;14.49;100.00;100529.13;5174340;28;20987;-72
2023/10/12 09:30:01;;;;;;;8.52;1.40;;;;;;;14.62;100.00;100532.81;5193667;28;20065;-72
2023/10/12 09:32:33;;;;;;;10.65;1.48;;;;;;;14.58;100.00;100523.41;5172745;28;20025;-71
2023/10/12 09:35:13;;;;;;;6.13;1.25;;;;;;;14.58;100.00;100529.50;5195172;28;20036;-72
2023/10/12 09:37:51;;;;;;;11.23;1.27;;;;;;;14.64;100.00;100528.31;5192375;28;20138;-72
2023/10/12 09:40:24;;;;;;;6.95;1.25;;;;;;;14.54;100.00;100537.59;5191860;28;20470;-72
2023/10/12 09:43:06;;;;;;;9.30;1.23;;;;;;;14.60;100.00;100534.69;5191066;28;20407;-72
2023/10/12 09:45:47;;;;;;;9.73;1.42;;;;;;;14.65;100.00;100543.19;5177126;28;20113;-72
2023/10/12 09:48:24;;;;;;;5.85;1.73;;;;;;;14.61;100.00;100546.91;5194302;28;20037;-72
2023/10/12 09:51:01;;;;;;;10.32;1.55;;;;;;;14.54;100.00;100546.38;5187379;28;20029;-72
2023/10/12 09:53:40;;;;;;;5.82;1.23;;;;;;;14.63;100.00;100550.28;5166278;28;20635;-72
2023/10/12 09:56:15;;;;;;;7.15;1.13;;;;;;;14.64;100.00;100555.50;5193387;28;20237;-73
2023/10/12 09:58:52;;;;;;;;;;;;;;;14.55;100.00;100553.31;5192848;28;20021;-72
2023/10/12 10:01:49;;;;;;;7.28;1.13;;;;;;;14.70;100.00;100556.94;5194840;28;19920;-72
2023/10/12 10:07:14;;;;;;;6.18;1.00;;;;;;;14.76;100.00;100557.47;5188937;28;20033;-72
2023/10/12 10:09:53;;;;;;;6.70;0.90;;;;;;;14.83;100.00;100564.13;5185544;28;20305;-72
2023/10/12 10:12:27;;;;;;;8.95;1.23;;;;;;;14.77;100.00;100563.59;5187572;28;20033;-72
2023/10/12 10:15:00;;;;;;;8.48;1.08;;;;;;;14.74;100.00;100563.75;5169515;28;20036;-72
2023/10/12 10:17:46;;;;;;;4.22;0.90;;;;;;;14.90;100.00;100568.97;5181905;28;20105;-71
2023/10/12 10:22:57;;;;;;;4.90;1.10;;;;;;;15.00;100.00;100570.16;5190725;28;20213;-72
2023/10/12 10:25:50;;;;;;;6.10;1.00;;;;;;;15.11;100.00;100564.31;5189165;28;20021;-71
2023/10/12 10:28:28;;;;;;;7.13;1.00;;;;;;;15.05;100.00;100560.22;5178653;28;20511;-72
2023/10/12 10:31:01;;;;;;;8.40;1.10;;;;;;;14.97;100.00;100567.69;5174730;28;20034;-72
2023/10/12 10:33:37;;;;;;;5.97;1.00;;;;;;;15.08;100.00;100559.22;5191546;28;20034;-71
2023/10/12 10:36:13;;;;;;;6.13;1.10;;;;;;;15.21;100.00;100555.00;5192644;28;20030;-72
2023/10/12 10:41:18;;;;;;;6.65;1.13;;;;;;;15.28;100.00;100544.06;5190300;28;20109;-72
2023/10/12 10:43:53;;;;;;;8.73;1.25;;;;;;;15.23;100.00;100551.34;5175294;28;20028;-72
2023/10/12 10:46:26;;;;;;;7.80;1.00;;;;;;;15.19;100.00;100559.50;5187524;28;20029;-71
2023/10/12 10:48:56;;;;;;;6.85;1.38;;;;;;;15.24;100.00;100557.47;5174236;28;20041;-72
2023/10/12 10:51:32;;;;;;;7.07;0.93;;;;;;;15.18;100.00;100550.75;5187191;28;20033;-71
2023/10/12 10:54:03;;;;;;;8.05;1.15;;;;;;;15.28;100.00;100551.94;5188100;28;20499;-72
2023/10/12 10:56:38;;;;;;;5.60;1.50;;;;;;;15.36;100.00;100555.03;5172777;28;20044;-71
2023/10/12 10:59:12;;;;;;;9.63;1.42;;;;;;;15.55;100.00;100555.69;5195517;28;20025;-72
2023/10/12 11:01:48;;;;;;;4.97;1.10;;;;;;;15.37;100.00;100555.88;5187068;28;20033;-72
2023/10/12 11:07:04;;;;;;;6.30;1.20;;;;;;;15.45;100.00;100549.25;5183750;28;20056;-72
2023/10/12 11:12:25;;;;;;;5.40;0.93;;;;;;;14.85;100.00;100546.47;5191162;28;20758;-72
2023/10/12 11:15:00;;;;;;;7.10;1.08;;;;;;;14.80;100.00;100552.88;5172367;28;20026;-72
2023/10/12 11:17:40;;;;;;;4.88;0.90;;;;;;;15.02;100.00;100544.59;5192296;28;20482;-72
2023/10/12 11:20:26;;;;;;;5.28;1.17;;;;;;;15.04;100.00;100545.38;5174364;28;20033;-72
2023/10/12 11:23:02;;;;;;;5.38;1.30;;;;;;;14.87;100.00;100545.41;5177652;28;20402;-72
2023/10/12 11:25:39;;;;;;;7.80;1.20;;;;;;;15.05;100.00;100533.91;5190785;28;20025;-72
2023/10/12 11:28:22;;;;;;;4.93;0.75;;;;;;;14.88;100.00;100535.75;5196894;28;20040;-72
2023/10/12 11:31:01;;;;;;;7.10;1.20;;;;;;;14.98;100.00;100532.56;5195078;28;20037;-72
2023/10/12 11:33:34;;;;;;;8.93;1.30;;;;;;;15.11;100.00;100536.22;5175922;28;20027;-72
2023/10/12 11:36:04;;;;;;;6.15;0.93;;;;;;;15.13;100.00;100536.97;5192938;28;20021;-72
2023/10/12 11:38:35;;;;;;;7.90;1.35;;;;;;;15.12;100.00;100537.91;5193270;28;20048;-72
2023/10/12 11:41:13;;;;;;;6.78;1.33;;;;;;;15.13;100.00;100542.25;5168849;28;20030;-72
2023/10/12 11:43:49;;;;;;;7.85;1.10;;;;;;;15.26;100.00;100540.66;5192698;28;20493;-72
2023/10/12 11:46:21;;;;;;;5.35;1.13;;;;;;;15.11;100.00;100544.13;5197249;28;20025;-72
2023/10/12 11:49:03;;;;;;;6.13;1.05;;;;;;;15.01;100.00;100542.06;5196456;28;20025;-72
2023/10/12 11:51:40;;;;;;;7.03;1.27;;;;;;;15.20;100.00;100543.59;5187385;28;20112;-72
2023/10/12 11:54:19;;;;;;;7.25;1.20;;;;;;;15.08;100.00;100541.66;5196195;28;20592;-72
2023/10/12 11:56:50;;;;;;;6.03;1.08;;;;;;;14.89;100.00;100545.34;5195952;28;20032;-72
2023/10/12 11:59:26;;;;;;;9.05;1.55;;;;;;;14.86;100.00;100556.88;5197797;28;20025;-72
2023/10/12 12:02:03;;;;;;;6.10;1.00;;;;;;;14.85;100.00;100557.81;5177775;28;20065;-72
2023/10/12 12:04:40;;;;;;;6.93;1.00;;;;;;;15.04;100.00;100549.81;5192672;28;20024;-72
2023/10/12 12:07:10;;;;;;;4.05;0.88;;;;;;;15.08;100.00;100560.09;5193840;28;20498;-72
2023/10/12 12:09:41;;;;;;;8.88;1.65;;;;;;;15.26;100.00;100559.09;5171580;28;20068;-71
2023/10/12 12:12:16;;;;;;;9.32;1.17;;;;;;;14.94;100.00;100559.09;5196290;28;20021;-72
2023/10/12 12:14:46;;;;;;;6.78;1.20;;;;;;;15.02;100.00;100555.13;5195906;28;20379;-72
2023/10/12 12:17:17;;;;;;;7.30;1.10;;;;;;;15.01;100.00;100558.69;5195852;28;20034;-72
2023/10/12 12:19:47;;;;;;;6.95;1.27;;;;;;;15.00;100.00;100556.16;5196314;28;20033;-72
2023/10/12 12:22:21;;;;;;;8.20;1.10;;;;;;;14.82;100.00;100555.34;5196973;28;20602;-72
2023/10/12 12:24:53;;;;;;;5.85;1.45;;;;;;;14.85;100.00;100556.97;5176881;28;20018;-72
2023/10/12 12:27:37;;;;;;;7.50;1.17;;;;;;;14.99;100.00;100557.94;5196899;28;20508;-72
2023/10/12 12:30:22;;;;;;;7.80;1.45;;;;;;;14.82;100.00;100555.34;5178329;28;20029;-72
2023/10/12 12:33:00;;;;;;;4.10;0.90;;;;;;;14.63;100.00;100555.56;5176842;28;20033;-72
2023/10/12 12:35:31;;;;;;;4.70;1.02;;;;;;;14.57;100.00;100553.25;5187063;28;20109;-72
2023/10/12 12:38:13;;;;;;;6.75;1.27;;;;;;;14.78;100.00;100552.13;5196085;28;20533;-72
2023/10/12 12:40:45;;;;;;;7.07;1.42;;;;;;;14.69;100.00;100548.19;5191384;28;20025;-72
2023/10/12 12:43:15;;;;;;;5.90;1.05;;;;;;;14.82;100.00;100551.03;5175540;28;20376;-72
2023/10/12 12:45:46;;;;;;;5.35;1.40;;;;;;;14.83;100.00;100543.06;5177487;28;20033;-71
2023/10/12 12:48:16;;;;;;;7.20;0.80;;;;;;;14.78;100.00;100549.50;5195842;28;20479;-72
2023/10/12 12:50:49;;;;;;;6.22;1.13;;;;;;;14.65;100.00;100543.19;5173259;28;20022;-72
2023/10/12 12:53:20;;;;;;;7.00;1.42;;;;;;;14.58;100.00;100547.91;5176573;28;20028;-73
2023/10/12 12:55:50;;;;;;;5.97;1.10;;;;;;;14.69;100.00;100545.56;5195317;28;20471;-73
2023/10/12 12:58:23;;;;;;;9.57;1.42;;;;;;;14.60;100.00;100539.94;5196956;28;20536;-73
2023/10/12 13:00:54;;;;;;;5.47;1.25;;;;;;;14.65;100.00;100543.19;5195681;28;20029;-73
2023/10/12 13:03:25;;;;;;;5.68;1.10;;;;;;;14.65;100.00;100543.19;5195959;28;20163;-72
2023/10/12 13:05:55;;;;;;;5.25;1.13;;;;;;;14.73;100.00;100547.09;5193498;28;20025;-73
2023/10/12 13:08:26;;;;;;;4.65;0.95;;;;;;;14.68;100.00;100545.63;5191789;28;20475;-73
2023/10/12 13:10:57;;;;;;;5.60;0.95;;;;;;;14.76;100.00;100546.94;5193465;28;20037;-73
2023/10/12 13:13:27;;;;;;;6.13;1.10;;;;;;;14.69;100.00;100545.56;5192303;28;20096;-72
2023/10/12 13:15:57;;;;;;;8.45;1.50;;;;;;;14.95;100.00;100537.97;5195347;28;20112;-73
2023/10/12 13:18:29;;;;;;;6.78;1.08;;;;;;;14.70;100.00;100541.13;5195405;28;20021;-73
2023/10/12 13:21:01;;;;;;;6.90;1.00;;;;;;;14.59;100.00;100540.88;5191367;28;20057;-72
2023/10/12 13:23:31;;;;;;;9.35;1.60;;;;;;;14.44;100.00;100539.03;5195812;28;20029;-72
2023/10/12 13:26:06;;;;;;;9.48;1.27;;;;;;;14.61;100.00;100539.00;5193418;28;20510;-72
2023/10/12 13:28:38;;;;;;;6.35;1.00;;;;;;;14.65;100.00;100532.66;5194997;28;20040;-73
2023/10/12 13:31:12;;;;;;;6.65;1.00;;;;;;;14.70;100.00;100538.50;5196066;28;20037;-72
2023/10/12 13:33:42;;;;;;;9.10;1.40;;;;;;;14.64;100.00;100536.22;5193526;28;20061;-72
2023/10/12 13:36:13;;;;;;;6.40;1.02;;;;;;;14.46;100.00;100537.19;5175156;28;20056;-72
2023/10/12 13:38:43;;;;;;;4.90;0.77;;;;;;;14.40;100.00;100532.25;5195404;28;21614;-73
2023/10/12 13:41:14;;;;;;;7.38;1.10;;;;;;;14.35;100.00;100527.22;5193814;28;20515;-73
2023/10/12 13:43:48;;;;;;;5.68;1.02;;;;;;;14.43;100.00;100535.53;5177033;28;20036;-74
2023/10/12 13:46:18;;;;;;;6.60;0.90;;;;;;;14.35;100.00;100529.84;5195314;28;20033;-73
2023/10/12 13:48:49;;;;;;;2.42;0.90;;;;;;;14.35;100.00;100529.84;5195500;28;20688;-73
2023/10/12 13:51:20;;;;;;;5.80;1.10;;;;;;;14.39;100.00;100525.28;5184130;28;20029;-73
2023/10/12 13:53:50;;;;;;;7.32;1.48;;;;;;;14.42;100.00;100522.50;5192655;28;20483;-72
2023/10/12 13:56:24;;;;;;;4.00;0.90;;;;;;;14.39;100.00;100525.28;5193523;28;20029;-72
2023/10/12 13:58:58;;;;;;;6.57;1.40;;;;;;;14.51;100.00;100516.75;5192410;28;20033;-73
2023/10/12 14:01:33;;;;;;;5.85;1.13;;;;;;;14.42;100.00;100517.22;5193739;28;20022;-73
2023/10/12 14:04:28;;;;;;;5.97;1.13;;;;;;;14.38;100.00;100515.66;5173406;28;20449;-72
2023/10/12 14:07:00;;;;;;;4.78;0.82;;;;;;;14.50;100.00;100520.31;5193497;28;20438;-72
2023/10/12 14:09:31;;;;;;;5.07;0.77;;;;;;;14.43;100.00;100511.88;5174106;28;20037;-72
2023/10/12 14:12:02;;;;;;;2.03;0.45;;;;;;;14.43;100.00;100511.88;5174460;28;20372;-73
2023/10/12 14:14:33;;;;;;;1.63;0.57;;;;;;;14.43;100.00;100511.03;5175521;28;20275;-73
2023/10/12 14:17:07;;;;;;;4.25;0.80;;;;;;;14.51;100.00;100514.97;5195895;28;20083;-73
2023/10/12 14:19:37;;;;;;;3.40;0.73;;;;;;;14.43;100.00;100517.13;5170515;28;20503;-73
2023/10/12 14:22:08;;;;;;;3.17;0.60;;;;;;;14.38;100.00;100518.31;5184913;28;20038;-73